sensor_id;sensor_type;location;lat;lon;timestamp;pressure;altitude;pressure_sealevel;temperature;humidity
20889;BME280;10604;51.976;7.594;2023-01-31T00:01:17;101573.06;;;5.25;87.85
20889;BME280;10604;51.976;7.594;2023-01-31T00:03:43;101566.06;;;5.27;88.20
20889;BME280;10604;51.976;7.594;2023-01-31T00:08:38;101568.66;;;5.16;87.59
20889;BME280;10604;51.976;7.594;2023-01-31T00:11:04;101568.56;;;5.05;88.06
20889;BME280;10604;51.976;7.594;2023-01-31T00:13:29;101568.63;;;5.13;88.20
20889;BME280;10604;51.976;7.594;2023-01-31T00:15:55;101566.00;;;5.08;87.84
20889;BME280;10604;51.976;7.594;2023-01-31T00:18:21;101563.34;;;5.02;88.57
20889;BME280;10604;51.976;7.594;2023-01-31T00:20:46;101571.16;;;4.99;88.72
20889;BME280;10604;51.976;7.594;2023-01-31T00:23:12;101575.50;;;4.97;88.82
20889;BME280;10604;51.976;7.594;2023-01-31T00:25:37;101568.50;;;4.89;88.68
20889;BME280;10604;51.976;7.594;2023-01-31T00:28:02;101574.59;;;4.92;89.32
20889;BME280;10604;51.976;7.594;2023-01-31T00:30:28;101578.09;;;4.94;88.55
20889;BME280;10604;51.976;7.594;2023-01-31T00:32:53;101571.06;;;4.84;88.93
20889;BME280;10604;51.976;7.594;2023-01-31T00:35:18;101569.25;;;4.77;88.80
20889;BME280;10604;51.976;7.594;2023-01-31T00:37:44;101574.53;;;4.83;88.75
20889;BME280;10604;51.976;7.594;2023-01-31T00:40:10;101578.78;;;4.70;89.07
20889;BME280;10604;51.976;7.594;2023-01-31T00:42:35;101570.84;;;4.57;89.24
20889;BME280;10604;51.976;7.594;2023-01-31T00:45:01;101572.53;;;4.49;89.95
20889;BME280;10604;51.976;7.594;2023-01-31T00:47:26;101569.94;;;4.50;89.48
20889;BME280;10604;51.976;7.594;2023-01-31T00:49:51;101570.84;;;4.57;90.06
20889;BME280;10604;51.976;7.594;2023-01-31T00:52:17;101565.63;;;4.57;89.94
20889;BME280;10604;51.976;7.594;2023-01-31T00:54:42;101570.72;;;4.42;90.30
20889;BME280;10604;51.976;7.594;2023-01-31T00:57:07;101565.50;;;4.39;90.47
20889;BME280;10604;51.976;7.594;2023-01-31T00:59:33;101575.81;;;4.26;90.42
20889;BME280;10604;51.976;7.594;2023-01-31T01:01:58;101574.16;;;4.34;91.57
20889;BME280;10604;51.976;7.594;2023-01-31T01:04:23;101584.63;;;4.38;91.32
20889;BME280;10604;51.976;7.594;2023-01-31T01:06:49;101575.00;;;4.32;90.79
20889;BME280;10604;51.976;7.594;2023-01-31T01:09:15;101575.91;;;4.36;91.22
20889;BME280;10604;51.976;7.594;2023-01-31T01:11:41;101577.56;;;4.27;91.42
20889;BME280;10604;51.976;7.594;2023-01-31T01:14:06;101565.31;;;4.20;91.32
20889;BME280;10604;51.976;7.594;2023-01-31T01:16:35;101570.59;;;4.26;91.61
20889;BME280;10604;51.976;7.594;2023-01-31T01:19:03;101567.16;;;4.33;91.05
20889;BME280;10604;51.976;7.594;2023-01-31T01:21:30;101576.81;;;4.41;91.71
20889;BME280;10604;51.976;7.594;2023-01-31T01:23:58;101575.81;;;4.26;92.05
20889;BME280;10604;51.976;7.594;2023-01-31T01:26:26;101570.63;;;4.29;91.75
20889;BME280;10604;51.976;7.594;2023-01-31T01:28:53;101564.59;;;4.37;92.01
20889;BME280;10604;51.976;7.594;2023-01-31T01:31:20;101562.88;;;4.39;91.86
20889;BME280;10604;51.976;7.594;2023-01-31T01:33:47;101574.09;;;4.25;91.40
20889;BME280;10604;51.976;7.594;2023-01-31T01:36:14;101566.22;;;4.24;91.30
20889;BME280;10604;51.976;7.594;2023-01-31T01:38:46;101570.59;;;4.26;91.42
20889;BME280;10604;51.976;7.594;2023-01-31T01:41:12;101572.28;;;4.18;91.51
20889;BME280;10604;51.976;7.594;2023-01-31T01:46:37;101584.34;;;4.09;91.54
20889;BME280;10604;51.976;7.594;2023-01-31T01:51:42;101566.75;;;3.88;91.88
20889;BME280;10604;51.976;7.594;2023-01-31T01:54:13;101570.31;;;3.96;92.44
20889;BME280;10604;51.976;7.594;2023-01-31T01:56:46;101564.22;;;3.96;91.97
20889;BME280;10604;51.976;7.594;2023-01-31T01:59:18;101568.44;;;3.83;91.92
20889;BME280;10604;51.976;7.594;2023-01-31T02:01:46;101574.44;;;3.77;92.42
20889;BME280;10604;51.976;7.594;2023-01-31T02:04:15;101577.94;;;3.79;92.32
20889;BME280;10604;51.976;7.594;2023-01-31T02:06:43;101585.81;;;3.84;92.46
20889;BME280;10604;51.976;7.594;2023-01-31T02:09:31;101581.41;;;3.78;92.83
20889;BME280;10604;51.976;7.594;2023-01-31T02:11:59;101580.44;;;3.67;93.18
20889;BME280;10604;51.976;7.594;2023-01-31T02:14:24;101589.16;;;3.71;93.11
20889;BME280;10604;51.976;7.594;2023-01-31T02:16:50;101592.66;;;3.73;93.29
20889;BME280;10604;51.976;7.594;2023-01-31T02:19:28;101598.75;;;3.73;92.84
20889;BME280;10604;51.976;7.594;2023-01-31T02:22:16;101604.88;;;3.77;93.17
20889;BME280;10604;51.976;7.594;2023-01-31T02:38:40;101613.66;;;3.83;93.18
20889;BME280;10604;51.976;7.594;2023-01-31T02:41:27;101606.69;;;3.84;92.99
20889;BME280;10604;51.976;7.594;2023-01-31T02:44:11;101616.09;;;3.71;93.05
20889;BME280;10604;51.976;7.594;2023-01-31T02:47:17;101622.28;;;3.78;93.22
20889;BME280;10604;51.976;7.594;2023-01-31T02:49:58;101613.47;;;3.70;93.00
20889;BME280;10604;51.976;7.594;2023-01-31T02:55:11;101606.59;;;3.75;93.39
20889;BME280;10604;51.976;7.594;2023-01-31T02:57:58;101601.28;;;3.66;93.24
20889;BME280;10604;51.976;7.594;2023-01-31T03:00:25;101596.00;;;3.63;93.43
20889;BME280;10604;51.976;7.594;2023-01-31T03:02:51;101590.00;;;3.68;93.42
20889;BME280;10604;51.976;7.594;2023-01-31T03:05:18;101576.94;;;3.67;93.27
20889;BME280;10604;51.976;7.594;2023-01-31T03:07:55;101568.16;;;3.59;94.04
20889;BME280;10604;51.976;7.594;2023-01-31T03:15:58;101561.28;;;3.67;93.89
20889;BME280;10604;51.976;7.594;2023-01-31T03:19:15;101556.09;;;3.67;93.32
20889;BME280;10604;51.976;7.594;2023-01-31T03:21:50;101566.56;;;3.73;93.54
20889;BME280;10604;51.976;7.594;2023-01-31T03:24:17;101563.88;;;3.65;93.42
20889;BME280;10604;51.976;7.594;2023-01-31T03:26:44;101554.31;;;3.66;93.30
20889;BME280;10604;51.976;7.594;2023-01-31T03:29:14;101547.53;;;3.80;93.22
20889;BME280;10604;51.976;7.594;2023-01-31T03:31:48;101551.91;;;3.82;93.08
20889;BME280;10604;51.976;7.594;2023-01-31T03:34:16;101550.25;;;3.92;92.97
20889;BME280;10604;51.976;7.594;2023-01-31T03:36:55;101548.41;;;3.80;92.84
20889;BME280;10604;51.976;7.594;2023-01-31T03:42:16;101537.19;;;3.89;93.31
20889;BME280;10604;51.976;7.594;2023-01-31T03:47:25;101526.81;;;3.98;92.45
20889;BME280;10604;51.976;7.594;2023-01-31T03:49:54;101528.56;;;3.96;92.62
20889;BME280;10604;51.976;7.594;2023-01-31T03:52:30;101521.66;;;4.01;92.13
20889;BME280;10604;51.976;7.594;2023-01-31T03:55:02;101521.69;;;4.07;92.45
20889;BME280;10604;51.976;7.594;2023-01-31T03:57:34;101525.97;;;3.99;92.44
20889;BME280;10604;51.976;7.594;2023-01-31T04:00:04;101525.16;;;4.06;92.26
20889;BME280;10604;51.976;7.594;2023-01-31T04:02:34;101518.19;;;4.05;91.77
20889;BME280;10604;51.976;7.594;2023-01-31T04:05:20;101525.06;;;3.96;92.57
20889;BME280;10604;51.976;7.594;2023-01-31T04:07:47;101521.66;;;4.01;92.52
20889;BME280;10604;51.976;7.594;2023-01-31T04:10:16;101526.97;;;4.10;92.07
20889;BME280;10604;51.976;7.594;2023-01-31T04:12:42;101520.97;;;4.23;91.30
20889;BME280;10604;51.976;7.594;2023-01-31T04:15:09;101511.28;;;4.10;91.71
20889;BME280;10604;51.976;7.594;2023-01-31T04:17:34;101508.75;;;4.16;92.07
20889;BME280;10604;51.976;7.594;2023-01-31T04:20:00;101513.06;;;4.14;91.78
20889;BME280;10604;51.976;7.594;2023-01-31T04:22:25;101505.34;;;4.29;91.98
20889;BME280;10604;51.976;7.594;2023-01-31T04:24:51;101504.41;;;4.21;91.36
20889;BME280;10604;51.976;7.594;2023-01-31T04:27:16;101494.03;;;4.27;91.62
20889;BME280;10604;51.976;7.594;2023-01-31T04:29:42;101492.34;;;4.32;91.72
20889;BME280;10604;51.976;7.594;2023-01-31T04:32:07;101497.56;;;4.36;91.10
20889;BME280;10604;51.976;7.594;2023-01-31T04:34:33;101488.91;;;4.40;90.85
20889;BME280;10604;51.976;7.594;2023-01-31T04:36:58;101494.13;;;4.40;90.76
20889;BME280;10604;51.976;7.594;2023-01-31T04:39:24;101498.44;;;4.34;90.84
20889;BME280;10604;51.976;7.594;2023-01-31T04:41:49;101501.13;;;4.44;91.01
20889;BME280;10604;51.976;7.594;2023-01-31T04:44:14;101506.38;;;4.50;90.54
20889;BME280;10604;51.976;7.594;2023-01-31T04:46:41;101504.69;;;4.58;90.26
20889;BME280;10604;51.976;7.594;2023-01-31T04:49:06;101503.84;;;4.59;90.60
20889;BME280;10604;51.976;7.594;2023-01-31T04:51:32;101502.06;;;4.52;90.70
20889;BME280;10604;51.976;7.594;2023-01-31T04:53:57;101492.44;;;4.48;90.85
20889;BME280;10604;51.976;7.594;2023-01-31T04:56:22;101499.44;;;4.55;90.62
20889;BME280;10604;51.976;7.594;2023-01-31T04:58:48;101489.09;;;4.70;90.35
20889;BME280;10604;51.976;7.594;2023-01-31T05:01:13;101501.28;;;4.71;90.41
20889;BME280;10604;51.976;7.594;2023-01-31T05:03:39;101487.38;;;4.72;90.22
20889;BME280;10604;51.976;7.594;2023-01-31T05:06:05;101485.56;;;4.62;91.01
20889;BME280;10604;51.976;7.594;2023-01-31T05:08:30;101479.47;;;4.63;90.62
20889;BME280;10604;51.976;7.594;2023-01-31T05:11:00;101467.38;;;4.79;90.34
20889;BME280;10604;51.976;7.594;2023-01-31T05:13:26;101459.56;;;4.83;90.26
20889;BME280;10604;51.976;7.594;2023-01-31T05:15:54;101447.31;;;4.76;90.14
20889;BME280;10604;51.976;7.594;2023-01-31T05:18:20;101447.34;;;4.79;89.87
20889;BME280;10604;51.976;7.594;2023-01-31T05:20:46;101435.19;;;4.81;89.88
20889;BME280;10604;51.976;7.594;2023-01-31T05:23:14;101422.97;;;4.80;89.96
20889;BME280;10604;51.976;7.594;2023-01-31T05:25:39;101415.09;;;4.71;89.75
20889;BME280;10604;51.976;7.594;2023-01-31T05:28:04;101415.06;;;4.69;89.95
20889;BME280;10604;51.976;7.594;2023-01-31T05:30:30;101403.75;;;4.69;90.25
20889;BME280;10604;51.976;7.594;2023-01-31T05:32:55;101406.31;;;4.58;90.29
20889;BME280;10604;51.976;7.594;2023-01-31T05:35:21;101400.22;;;4.58;90.99
20889;BME280;10604;51.976;7.594;2023-01-31T05:37:46;101401.09;;;4.58;90.67
20889;BME280;10604;51.976;7.594;2023-01-31T05:40:14;101399.28;;;4.48;91.06
20889;BME280;10604;51.976;7.594;2023-01-31T05:42:40;101394.19;;;4.71;90.90
20889;BME280;10604;51.976;7.594;2023-01-31T05:45:06;101392.50;;;4.85;90.73
20889;BME280;10604;51.976;7.594;2023-01-31T05:47:32;101391.63;;;4.80;90.66
20889;BME280;10604;51.976;7.594;2023-01-31T05:49:57;101390.75;;;4.75;90.64
20889;BME280;10604;51.976;7.594;2023-01-31T05:52:23;101382.00;;;4.78;90.94
20889;BME280;10604;51.976;7.594;2023-01-31T05:54:48;101384.66;;;4.85;90.76
20889;BME280;10604;51.976;7.594;2023-01-31T05:57:14;101375.94;;;4.80;90.81
20889;BME280;10604;51.976;7.594;2023-01-31T05:59:40;101358.53;;;4.91;90.95
20889;BME280;10604;51.976;7.594;2023-01-31T06:02:05;101362.06;;;4.99;90.46
20889;BME280;10604;51.976;7.594;2023-01-31T06:04:31;101362.97;;;5.13;90.41
20889;BME280;10604;51.976;7.594;2023-01-31T06:06:56;101357.69;;;4.98;90.34
20889;BME280;10604;51.976;7.594;2023-01-31T06:09:22;101368.19;;;5.07;90.57
20889;BME280;10604;51.976;7.594;2023-01-31T06:11:47;101358.59;;;5.12;90.09
20889;BME280;10604;51.976;7.594;2023-01-31T06:14:12;101355.13;;;5.15;90.27
20889;BME280;10604;51.976;7.594;2023-01-31T06:16:38;101369.06;;;5.11;89.93
20889;BME280;10604;51.976;7.594;2023-01-31T06:19:03;101374.28;;;5.06;90.32
20889;BME280;10604;51.976;7.594;2023-01-31T06:21:29;101380.38;;;5.11;90.31
20889;BME280;10604;51.976;7.594;2023-01-31T06:23:54;101382.16;;;5.29;89.49
20889;BME280;10604;51.976;7.594;2023-01-31T06:26:19;101383.03;;;5.30;89.49
20889;BME280;10604;51.976;7.594;2023-01-31T06:28:45;101379.56;;;5.37;89.53
20889;BME280;10604;51.976;7.594;2023-01-31T06:31:11;101391.81;;;5.47;88.79
20889;BME280;10604;51.976;7.594;2023-01-31T06:33:37;101383.06;;;5.42;88.94
20889;BME280;10604;51.976;7.594;2023-01-31T06:36:02;101388.31;;;5.39;88.59
20889;BME280;10604;51.976;7.594;2023-01-31T06:38:28;101380.47;;;5.39;88.80
20889;BME280;10604;51.976;7.594;2023-01-31T06:40:54;101374.34;;;5.49;88.29
20889;BME280;10604;51.976;7.594;2023-01-31T06:43:19;101381.34;;;5.53;88.30
20889;BME280;10604;51.976;7.594;2023-01-31T06:45:44;101377.84;;;5.57;88.38
20889;BME280;10604;51.976;7.594;2023-01-31T06:48:10;101381.31;;;5.41;88.62
20889;BME280;10604;51.976;7.594;2023-01-31T06:50:36;101386.56;;;5.50;88.20
20889;BME280;10604;51.976;7.594;2023-01-31T06:53:02;101381.31;;;5.50;88.00
20889;BME280;10604;51.976;7.594;2023-01-31T06:55:27;101392.69;;;5.52;88.19
20889;BME280;10604;51.976;7.594;2023-01-31T06:57:52;101398.78;;;5.53;88.10
20889;BME280;10604;51.976;7.594;2023-01-31T07:00:20;101395.31;;;5.54;88.21
20889;BME280;10604;51.976;7.594;2023-01-31T07:02:47;101391.81;;;5.47;88.21
20889;BME280;10604;51.976;7.594;2023-01-31T07:05:13;101383.09;;;5.59;88.23
20889;BME280;10604;51.976;7.594;2023-01-31T07:07:39;101377.88;;;5.54;87.82
20889;BME280;10604;51.976;7.594;2023-01-31T07:10:05;101384.84;;;5.60;88.08
20889;BME280;10604;51.976;7.594;2023-01-31T07:12:31;101377.88;;;5.54;88.39
20889;BME280;10604;51.976;7.594;2023-01-31T07:14:56;101395.28;;;5.55;87.76
20889;BME280;10604;51.976;7.594;2023-01-31T07:17:21;101379.59;;;5.58;88.10
20889;BME280;10604;51.976;7.594;2023-01-31T07:19:47;101394.44;;;5.65;87.99
20889;BME280;10604;51.976;7.594;2023-01-31T07:22:12;101393.56;;;5.60;87.81
20889;BME280;10604;51.976;7.594;2023-01-31T07:24:38;101381.34;;;5.65;87.88
20889;BME280;10604;51.976;7.594;2023-01-31T07:27:03;101363.88;;;5.55;88.02
20889;BME280;10604;51.976;7.594;2023-01-31T07:29:28;101363.91;;;5.58;87.67
20889;BME280;10604;51.976;7.594;2023-01-31T07:31:54;101364.78;;;5.59;87.66
20889;BME280;10604;51.976;7.594;2023-01-31T07:34:19;101374.38;;;5.61;87.64
20889;BME280;10604;51.976;7.594;2023-01-31T07:36:47;101380.47;;;5.63;87.76
20889;BME280;10604;51.976;7.594;2023-01-31T07:39:13;101379.59;;;5.76;87.37
20889;BME280;10604;51.976;7.594;2023-01-31T07:41:38;101377.00;;;5.82;87.18
20889;BME280;10604;51.976;7.594;2023-01-31T07:44:04;101377.88;;;5.75;87.09
20889;BME280;10604;51.976;7.594;2023-01-31T07:46:33;101377.84;;;5.84;86.40
20889;BME280;10604;51.976;7.594;2023-01-31T07:48:59;101363.03;;;5.82;87.17
20889;BME280;10604;51.976;7.594;2023-01-31T07:51:24;101373.50;;;5.79;86.98
20889;BME280;10604;51.976;7.594;2023-01-31T07:53:50;101371.72;;;5.84;86.93
20889;BME280;10604;51.976;7.594;2023-01-31T07:56:18;101358.66;;;5.98;86.67
20889;BME280;10604;51.976;7.594;2023-01-31T07:58:45;101355.19;;;5.96;86.43
20889;BME280;10604;51.976;7.594;2023-01-31T08:01:18;101362.16;;;6.03;85.85
20889;BME280;10604;51.976;7.594;2023-01-31T08:04:04;101346.47;;;5.97;85.37
20889;BME280;10604;51.976;7.594;2023-01-31T08:06:30;101348.22;;;6.02;86.26
20889;BME280;10604;51.976;7.594;2023-01-31T08:08:56;101348.19;;;6.01;86.37
20889;BME280;10604;51.976;7.594;2023-01-31T08:11:22;101348.19;;;6.01;86.65
20889;BME280;10604;51.976;7.594;2023-01-31T08:13:47;101335.13;;;6.01;87.38
20889;BME280;10604;51.976;7.594;2023-01-31T08:16:13;101334.22;;;5.83;88.18
20889;BME280;10604;51.976;7.594;2023-01-31T08:18:38;101330.78;;;5.89;88.97
20889;BME280;10604;51.976;7.594;2023-01-31T08:21:05;101326.41;;;5.93;89.11
20889;BME280;10604;51.976;7.594;2023-01-31T08:23:31;101324.63;;;5.85;88.75
20889;BME280;10604;51.976;7.594;2023-01-31T08:26:05;101320.25;;;5.84;89.15
20889;BME280;10604;51.976;7.594;2023-01-31T08:28:31;101315.03;;;5.84;89.49
20889;BME280;10604;51.976;7.594;2023-01-31T08:30:57;101314.19;;;5.93;89.02
20889;BME280;10604;51.976;7.594;2023-01-31T08:33:23;101313.28;;;5.86;89.35
20889;BME280;10604;51.976;7.594;2023-01-31T08:35:48;101319.41;;;5.82;89.68
20889;BME280;10604;51.976;7.594;2023-01-31T08:38:14;101308.91;;;5.84;90.42
20889;BME280;10604;51.976;7.594;2023-01-31T08:40:40;101311.56;;;5.79;90.60
20889;BME280;10604;51.976;7.594;2023-01-31T08:43:05;101302.81;;;5.86;91.73
20889;BME280;10604;51.976;7.594;2023-01-31T08:45:30;101288.88;;;5.81;91.18
20889;BME280;10604;51.976;7.594;2023-01-31T08:47:57;101285.41;;;5.82;91.12
20889;BME280;10604;51.976;7.594;2023-01-31T08:50:25;101287.09;;;5.83;91.19
20889;BME280;10604;51.976;7.594;2023-01-31T08:52:53;101269.69;;;5.79;90.60
20889;BME280;10604;51.976;7.594;2023-01-31T08:55:18;101273.16;;;5.94;90.99
20889;BME280;10604;51.976;7.594;2023-01-31T08:57:44;101282.75;;;5.90;91.16
20889;BME280;10604;51.976;7.594;2023-01-31T09:00:10;101262.72;;;5.97;90.69
20889;BME280;10604;51.976;7.594;2023-01-31T09:02:36;101253.13;;;5.89;90.25
20889;BME280;10604;51.976;7.594;2023-01-31T09:05:01;101256.59;;;5.92;89.83
20889;BME280;10604;51.976;7.594;2023-01-31T09:07:27;101260.97;;;5.94;89.28
20889;BME280;10604;51.976;7.594;2023-01-31T09:09:52;101253.97;;;6.01;89.38
20889;BME280;10604;51.976;7.594;2023-01-31T09:12:17;101262.66;;;6.06;88.88
20889;BME280;10604;51.976;7.594;2023-01-31T09:14:43;101254.81;;;6.00;89.29
20889;BME280;10604;51.976;7.594;2023-01-31T09:17:08;101259.19;;;6.01;89.15
20889;BME280;10604;51.976;7.594;2023-01-31T09:19:35;101252.19;;;6.09;89.03
20889;BME280;10604;51.976;7.594;2023-01-31T09:22:00;101246.09;;;5.99;88.31
20889;BME280;10604;51.976;7.594;2023-01-31T09:24:26;101245.19;;;6.05;88.36
20889;BME280;10604;51.976;7.594;2023-01-31T09:26:51;101232.13;;;6.02;88.36
20889;BME280;10604;51.976;7.594;2023-01-31T09:29:18;101243.44;;;6.16;87.85
20889;BME280;10604;51.976;7.594;2023-01-31T09:31:43;101246.94;;;6.09;87.79
20889;BME280;10604;51.976;7.594;2023-01-31T09:34:09;101245.19;;;6.08;87.22
20889;BME280;10604;51.976;7.594;2023-01-31T09:36:35;101246.06;;;6.17;87.63
20889;BME280;10604;51.976;7.594;2023-01-31T09:39:00;101251.25;;;6.20;87.34
20889;BME280;10604;51.976;7.594;2023-01-31T09:41:40;101250.38;;;6.23;88.12
20889;BME280;10604;51.976;7.594;2023-01-31T09:44:15;101255.59;;;6.26;88.36
20889;BME280;10604;51.976;7.594;2023-01-31T09:46:52;101243.38;;;6.31;88.15
20889;BME280;10604;51.976;7.594;2023-01-31T09:49:22;101237.28;;;6.21;87.71
20889;BME280;10604;51.976;7.594;2023-01-31T09:51:54;101231.22;;;6.15;87.62
20889;BME280;10604;51.976;7.594;2023-01-31T09:54:27;101233.78;;;6.25;88.14
20889;BME280;10604;51.976;7.594;2023-01-31T09:57:00;101232.94;;;6.25;88.50
20889;BME280;10604;51.976;7.594;2023-01-31T10:04:33;101230.31;;;6.19;87.39
20889;BME280;10604;51.976;7.594;2023-01-31T10:07:08;101223.28;;;6.27;87.47
20889;BME280;10604;51.976;7.594;2023-01-31T10:09:59;101241.56;;;6.44;87.62
20889;BME280;10604;51.976;7.594;2023-01-31T10:12:32;101234.59;;;6.34;87.94
20889;BME280;10604;51.976;7.594;2023-01-31T10:15:17;101238.09;;;6.37;87.75
20889;BME280;10604;51.976;7.594;2023-01-31T10:17:54;101244.22;;;6.36;87.11
20889;BME280;10604;51.976;7.594;2023-01-31T10:20:51;101242.44;;;6.40;86.99
20889;BME280;10604;51.976;7.594;2023-01-31T10:23:32;101236.28;;;6.48;86.74
20889;BME280;10604;51.976;7.594;2023-01-31T10:26:26;101230.97;;;6.63;86.56
20889;BME280;10604;51.976;7.594;2023-01-31T10:33:51;101216.94;;;6.74;86.33
20889;BME280;10604;51.976;7.594;2023-01-31T10:36:58;101203.72;;;6.83;86.75
20889;BME280;10604;51.976;7.594;2023-01-31T10:39:34;101196.00;;;6.67;86.24
20889;BME280;10604;51.976;7.594;2023-01-31T10:42:04;101190.69;;;6.77;86.46
20889;BME280;10604;51.976;7.594;2023-01-31T10:44:51;101200.28;;;6.76;86.00
20889;BME280;10604;51.976;7.594;2023-01-31T10:47:19;101195.09;;;6.70;85.95
20889;BME280;10604;51.976;7.594;2023-01-31T10:49:46;101184.66;;;6.65;86.00
20889;BME280;10604;51.976;7.594;2023-01-31T10:52:34;101182.09;;;6.59;86.45
20889;BME280;10604;51.976;7.594;2023-01-31T10:57:49;101177.72;;;6.57;87.68
20889;BME280;10604;51.976;7.594;2023-01-31T11:00:21;101170.78;;;6.47;88.28
20889;BME280;10604;51.976;7.594;2023-01-31T11:02:48;101181.16;;;6.63;88.01
20889;BME280;10604;51.976;7.594;2023-01-31T11:05:22;101168.16;;;6.51;88.33
20889;BME280;10604;51.976;7.594;2023-01-31T11:07:48;101166.47;;;6.41;88.69
20889;BME280;10604;51.976;7.594;2023-01-31T11:10:27;101161.94;;;6.61;88.87
20889;BME280;10604;51.976;7.594;2023-01-31T11:12:59;101166.41;;;6.50;88.90
20889;BME280;10604;51.976;7.594;2023-01-31T11:15:28;101176.84;;;6.59;88.80
20889;BME280;10604;51.976;7.594;2023-01-31T11:17:59;101157.63;;;6.54;89.00
20889;BME280;10604;51.976;7.594;2023-01-31T11:20:31;101146.31;;;6.49;88.89
20889;BME280;10604;51.976;7.594;2023-01-31T11:23:00;101143.75;;;6.43;89.63
20889;BME280;10604;51.976;7.594;2023-01-31T11:25:28;101127.06;;;6.55;89.58
20889;BME280;10604;51.976;7.594;2023-01-31T11:28:00;101124.34;;;6.68;89.03
20889;BME280;10604;51.976;7.594;2023-01-31T11:30:31;101130.38;;;6.78;88.99
20889;BME280;10604;51.976;7.594;2023-01-31T11:32:57;101128.63;;;6.80;88.71
20889;BME280;10604;51.976;7.594;2023-01-31T11:35:25;101134.66;;;6.90;88.54
20889;BME280;10604;51.976;7.594;2023-01-31T11:38:36;101143.38;;;6.92;88.52
20889;BME280;10604;51.976;7.594;2023-01-31T11:40:39;101132.88;;;6.95;88.53
20889;BME280;10604;51.976;7.594;2023-01-31T11:43:20;101130.31;;;6.89;87.79
20889;BME280;10604;51.976;7.594;2023-01-31T11:45:57;101133.88;;;6.79;88.08
20889;BME280;10604;51.976;7.594;2023-01-31T11:48:26;101131.13;;;6.94;88.15
20889;BME280;10604;51.976;7.594;2023-01-31T11:50:59;101132.88;;;6.92;88.78
20889;BME280;10604;51.976;7.594;2023-01-31T11:53:38;101122.41;;;6.93;88.22
20889;BME280;10604;51.976;7.594;2023-01-31T11:56:13;101113.63;;;6.96;88.23
20889;BME280;10604;51.976;7.594;2023-01-31T11:58:41;101120.59;;;6.97;88.13
20889;BME280;10604;51.976;7.594;2023-01-31T12:01:18;101120.59;;;6.97;87.71
20889;BME280;10604;51.976;7.594;2023-01-31T12:04:01;101113.50;;;7.08;87.73
20889;BME280;10604;51.976;7.594;2023-01-31T12:09:03;101088.00;;;7.22;87.21
20889;BME280;10604;51.976;7.594;2023-01-31T12:11:34;101088.88;;;7.24;87.00
20889;BME280;10604;51.976;7.594;2023-01-31T12:14:12;101074.81;;;7.31;87.16
20889;BME280;10604;51.976;7.594;2023-01-31T12:16:38;101073.06;;;7.30;86.25
20889;BME280;10604;51.976;7.594;2023-01-31T12:24:38;101052.19;;;7.18;89.13
20889;BME280;10604;51.976;7.594;2023-01-31T12:46:16;101057.50;;;7.15;92.11
20889;BME280;10604;51.976;7.594;2023-01-31T12:54:43;101051.47;;;7.05;94.83
20889;BME280;10604;51.976;7.594;2023-01-31T12:57:22;101057.56;;;7.09;95.24
20889;BME280;10604;51.976;7.594;2023-01-31T13:00:02;101064.44;;;7.19;95.12
20889;BME280;10604;51.976;7.594;2023-01-31T13:05:27;101066.16;;;7.20;96.06
20889;BME280;10604;51.976;7.594;2023-01-31T13:08:11;101071.56;;;7.08;96.33
20889;BME280;10604;51.976;7.594;2023-01-31T13:13:23;101057.56;;;7.09;97.31
20889;BME280;10604;51.976;7.594;2023-01-31T13:15:52;101060.19;;;7.07;97.69
20889;BME280;10604;51.976;7.594;2023-01-31T13:18:20;101057.56;;;7.09;98.19
20889;BME280;10604;51.976;7.594;2023-01-31T13:20:56;101071.69;;;6.94;98.27
20889;BME280;10604;51.976;7.594;2023-01-31T13:23:30;101072.50;;;7.02;98.17
20889;BME280;10604;51.976;7.594;2023-01-31T13:28:47;101057.66;;;7.00;98.72
20889;BME280;10604;51.976;7.594;2023-01-31T13:31:25;101055.97;;;6.96;99.63
20889;BME280;10604;51.976;7.594;2023-01-31T13:33:59;101056.78;;;6.98;99.61
20889;BME280;10604;51.976;7.594;2023-01-31T13:36:47;101061.16;;;6.99;99.68
20889;BME280;10604;51.976;7.594;2023-01-31T13:39:25;101035.88;;;6.93;99.77
20889;BME280;10604;51.976;7.594;2023-01-31T13:41:51;101047.16;;;7.03;100.00
20889;BME280;10604;51.976;7.594;2023-01-31T13:44:17;101048.84;;;7.04;99.57
20889;BME280;10604;51.976;7.594;2023-01-31T13:47:01;101046.19;;;7.10;99.94
20889;BME280;10604;51.976;7.594;2023-01-31T13:49:36;101041.91;;;7.03;99.84
20889;BME280;10604;51.976;7.594;2023-01-31T13:52:38;101052.34;;;7.06;99.96
20889;BME280;10604;51.976;7.594;2023-01-31T13:55:07;101058.53;;;7.00;100.00
20889;BME280;10604;51.976;7.594;2023-01-31T13:57:42;101051.50;;;7.02;100.00
20889;BME280;10604;51.976;7.594;2023-01-31T14:03:02;101042.72;;;7.05;100.00
20889;BME280;10604;51.976;7.594;2023-01-31T14:10:54;101040.00;;;7.14;99.88
20889;BME280;10604;51.976;7.594;2023-01-31T14:15:53;101048.75;;;7.16;100.00
20889;BME280;10604;51.976;7.594;2023-01-31T14:18:39;101040.03;;;7.11;100.00
20889;BME280;10604;51.976;7.594;2023-01-31T14:24:02;101050.44;;;7.20;100.00
20889;BME280;10604;51.976;7.594;2023-01-31T14:29:09;101057.31;;;7.30;99.33
20889;BME280;10604;51.976;7.594;2023-01-31T14:31:39;101059.06;;;7.31;99.68
20889;BME280;10604;51.976;7.594;2023-01-31T14:34:17;101066.06;;;7.29;99.63
20889;BME280;10604;51.976;7.594;2023-01-31T14:54:16;101057.16;;;7.45;99.86
20889;BME280;10604;51.976;7.594;2023-01-31T14:59:43;101061.44;;;7.51;99.32
20889;BME280;10604;51.976;7.594;2023-01-31T15:07:25;101056.88;;;7.67;99.62
20889;BME280;10604;51.976;7.594;2023-01-31T15:09:51;101060.41;;;7.63;98.84
20889;BME280;10604;51.976;7.594;2023-01-31T15:12:50;101056.91;;;7.64;99.51
20889;BME280;10604;51.976;7.594;2023-01-31T15:17:51;101062.22;;;7.58;99.81
20889;BME280;10604;51.976;7.594;2023-01-31T15:20:24;101051.72;;;7.58;100.00
20889;BME280;10604;51.976;7.594;2023-01-31T15:22:56;101067.38;;;7.67;99.82
20889;BME280;10604;51.976;7.594;2023-01-31T15:27:55;101052.53;;;7.64;99.77
20889;BME280;10604;51.976;7.594;2023-01-31T15:30:22;101065.56;;;7.69;99.44